createdAt,value
2019-03-10T10:07:18.230Z,938.27
2019-03-10T10:08:18.174Z,938.23
2019-03-10T10:09:18.114Z,938.19
2019-03-10T10:10:18.127Z,938.13
2019-03-10T10:11:18.165Z,938.11
2019-03-10T10:12:18.214Z,938.13
2019-03-10T10:13:18.071Z,938.08
2019-03-10T10:14:18.017Z,938.02
2019-03-10T10:15:18.017Z,938.00
2019-03-10T10:16:17.986Z,937.96
2019-03-10T10:17:17.998Z,937.92
2019-03-10T10:18:17.986Z,937.91
2019-03-10T10:19:17.948Z,937.95
2019-03-10T10:20:17.942Z,937.92
2019-03-10T10:21:17.924Z,937.90
2019-03-10T10:22:17.921Z,937.85
2019-03-10T10:23:17.953Z,937.90
2019-03-10T10:24:17.890Z,937.84
2019-03-10T10:25:17.882Z,937.79
2019-03-10T10:26:17.868Z,937.78
2019-03-10T10:27:20.088Z,937.78
2019-03-10T10:28:17.875Z,937.69
2019-03-10T10:29:17.865Z,937.66
2019-03-10T10:30:17.825Z,937.66
2019-03-10T10:31:17.817Z,937.63
2019-03-10T10:32:17.808Z,937.61
2019-03-10T10:33:17.804Z,937.58
2019-03-10T10:34:17.805Z,937.50
2019-03-10T10:35:17.806Z,937.48
2019-03-10T10:36:17.766Z,937.51
2019-03-10T10:37:17.751Z,937.47
2019-03-10T10:38:18.986Z,937.45
2019-03-10T10:39:17.734Z,937.41
2019-03-10T10:40:17.726Z,937.41
2019-03-10T10:41:17.743Z,937.39
2019-03-10T10:42:17.697Z,937.40
2019-03-10T10:43:17.686Z,937.30
2019-03-10T10:44:17.670Z,937.34
2019-03-10T10:45:17.702Z,937.25
2019-03-10T10:46:17.651Z,937.21
2019-03-10T10:47:17.679Z,937.15
2019-03-10T10:48:17.630Z,937.09
2019-03-10T10:49:17.609Z,937.02
2019-03-10T10:50:17.605Z,936.95
2019-03-10T10:51:17.617Z,936.90
2019-03-10T10:52:17.619Z,936.77
2019-03-10T10:53:17.607Z,936.79
2019-03-10T10:54:17.564Z,936.74
2019-03-10T10:55:17.552Z,936.70
2019-03-10T10:56:17.552Z,936.64
2019-03-10T10:57:17.548Z,936.68
2019-03-10T10:58:17.519Z,936.61
2019-03-10T10:59:17.517Z,936.52
2019-03-10T11:00:17.487Z,936.36
2019-03-10T11:01:17.477Z,936.40
2019-03-10T11:02:17.525Z,936.35
2019-03-10T11:03:17.451Z,936.46
2019-03-10T11:04:17.446Z,936.44
2019-03-10T11:05:17.451Z,936.48
2019-03-10T11:06:19.685Z,936.50
2019-03-10T11:07:17.413Z,936.50
2019-03-10T11:08:17.422Z,936.47
2019-03-10T11:09:17.383Z,936.40
2019-03-10T11:10:17.378Z,936.27
2019-03-10T11:11:17.384Z,936.22
2019-03-10T11:12:17.353Z,936.16
2019-03-10T11:13:17.487Z,936.11
2019-03-10T11:14:17.341Z,935.99
2019-03-10T11:15:17.325Z,936.09
2019-03-10T11:16:17.314Z,936.11
2019-03-10T11:17:17.312Z,936.07
2019-03-10T11:18:17.288Z,936.03
2019-03-10T11:19:17.327Z,935.97
2019-03-10T11:20:17.271Z,936.03
2019-03-10T11:21:17.254Z,936.01
2019-03-10T11:22:17.253Z,935.97
2019-03-10T11:23:17.252Z,935.95
2019-03-10T11:24:17.224Z,935.92
2019-03-10T11:25:17.227Z,935.87
2019-03-10T11:26:17.201Z,935.87
2019-03-10T11:27:17.197Z,935.86
2019-03-10T11:28:17.191Z,935.88
2019-03-10T11:29:17.184Z,935.87
2019-03-10T11:30:17.199Z,935.85
2019-03-10T11:31:17.152Z,935.80
2019-03-10T11:32:17.131Z,935.83
2019-03-10T11:33:17.130Z,935.81
2019-03-10T11:34:17.111Z,935.74
2019-03-10T11:35:17.133Z,935.76
2019-03-10T11:36:17.112Z,935.78
2019-03-10T11:37:17.080Z,935.67
2019-03-10T11:38:17.064Z,935.64
2019-03-10T11:39:17.057Z,935.56
2019-03-10T11:40:17.043Z,935.58
2019-03-10T11:41:17.038Z,935.59
2019-03-10T11:42:17.077Z,935.50
2019-03-10T11:43:17.011Z,935.43
2019-03-10T11:44:17.003Z,935.44
2019-03-10T11:45:16.985Z,935.50
2019-03-10T11:46:16.977Z,935.45
2019-03-10T11:47:17.013Z,935.44
2019-03-10T11:48:16.989Z,935.42
2019-03-10T11:49:16.949Z,935.37
2019-03-10T11:50:16.929Z,935.30
2019-03-10T11:51:16.922Z,935.28
2019-03-10T11:52:16.914Z,935.36
2019-03-10T11:53:19.347Z,935.33
2019-03-10T11:54:16.902Z,935.32
2019-03-10T11:55:16.977Z,935.32
2019-03-10T11:56:16.862Z,935.24
2019-03-10T11:57:16.858Z,935.21
2019-03-10T11:58:16.855Z,935.17
2019-03-10T11:59:16.971Z,935.17
2019-03-10T12:00:16.829Z,935.21
2019-03-10T12:01:16.815Z,935.13
2019-03-10T12:02:16.849Z,935.13
2019-03-10T12:03:16.800Z,935.12
2019-03-10T12:04:16.810Z,935.10
2019-03-10T12:05:16.772Z,935.11
2019-03-10T12:06:16.745Z,935.04
2019-03-10T12:07:16.761Z,935.05
2019-03-10T12:08:16.727Z,934.96
2019-03-10T12:09:16.740Z,934.89
2019-03-10T12:10:16.789Z,934.94
2019-03-10T12:11:16.705Z,934.84
2019-03-10T12:12:16.682Z,934.82
2019-03-10T12:13:16.675Z,934.83
2019-03-10T12:14:16.671Z,934.84
2019-03-10T12:15:16.679Z,934.85
2019-03-10T12:16:16.653Z,934.79
2019-03-10T12:17:16.664Z,934.81
2019-03-10T12:18:16.617Z,934.83
2019-03-10T12:19:16.611Z,934.82
2019-03-10T12:20:16.626Z,934.70
2019-03-10T12:21:16.582Z,934.70
2019-03-10T12:22:16.580Z,934.73
2019-03-10T12:23:16.566Z,934.64
2019-03-10T12:24:16.581Z,934.47
2019-03-10T12:25:16.535Z,934.53
2019-03-10T12:26:16.552Z,934.54
2019-03-10T12:27:16.513Z,934.51
2019-03-10T12:28:16.532Z,934.53
2019-03-10T12:29:16.492Z,934.51
2019-03-10T12:30:16.493Z,934.48
2019-03-10T12:31:16.525Z,934.49
2019-03-10T12:32:16.523Z,934.42
2019-03-10T12:33:16.458Z,934.45
2019-03-10T12:34:16.446Z,934.46
2019-03-10T12:35:16.420Z,934.47
2019-03-10T12:36:16.411Z,934.35
2019-03-10T12:37:16.430Z,934.47
2019-03-10T12:38:16.413Z,934.52
2019-03-10T12:39:17.293Z,934.54
2019-03-10T12:40:16.372Z,934.52
2019-03-10T12:41:16.356Z,934.46
2019-03-10T12:42:16.350Z,934.43
2019-03-10T12:43:16.417Z,934.34
2019-03-10T12:44:16.347Z,934.30
2019-03-10T12:45:16.313Z,934.30
2019-03-10T12:46:16.299Z,934.32
2019-03-10T12:47:16.286Z,934.21
2019-03-10T12:48:16.282Z,934.24
2019-03-10T12:49:16.282Z,934.13
2019-03-10T12:50:18.737Z,934.09
2019-03-10T12:51:16.237Z,934.09
2019-03-10T12:52:16.237Z,934.11
2019-03-10T12:53:16.224Z,934.29
2019-03-10T12:54:16.202Z,934.32
2019-03-10T12:55:16.281Z,934.26
2019-03-10T12:56:16.258Z,934.33
2019-03-10T12:57:16.182Z,934.25
2019-03-10T12:58:16.160Z,934.26
2019-03-10T12:59:16.152Z,934.23
2019-03-10T13:00:16.144Z,934.28
2019-03-10T13:01:16.146Z,934.17
2019-03-10T13:02:16.133Z,934.23
2019-03-10T13:03:16.109Z,934.30
2019-03-10T13:04:16.105Z,934.23
2019-03-10T13:05:16.076Z,934.32
2019-03-10T13:06:16.074Z,934.14
2019-03-10T13:07:16.107Z,934.21
2019-03-10T13:08:16.059Z,934.15
2019-03-10T13:09:16.045Z,934.16
2019-03-10T13:10:16.026Z,934.06
2019-03-10T13:11:16.018Z,934.04
2019-03-10T13:12:16.025Z,933.90
2019-03-10T13:13:16.046Z,933.91
2019-03-10T13:14:15.987Z,933.94
2019-03-10T13:15:15.984Z,933.88
2019-03-10T13:16:15.973Z,933.83
2019-03-10T13:17:15.955Z,933.73
2019-03-10T13:18:15.966Z,933.71
2019-03-10T13:19:15.935Z,933.80
2019-03-10T13:20:15.937Z,933.76
2019-03-10T13:21:15.901Z,933.79
2019-03-10T13:22:15.901Z,933.70
2019-03-10T13:23:15.892Z,933.75
2019-03-10T13:24:15.902Z,933.62
2019-03-10T13:25:15.870Z,933.67
2019-03-10T13:26:15.876Z,933.53
2019-03-10T13:27:15.833Z,933.56
2019-03-10T13:28:15.829Z,933.49
2019-03-10T13:29:15.816Z,933.40
2019-03-10T13:30:15.837Z,933.49
2019-03-10T13:31:15.801Z,933.46
2019-03-10T13:32:15.813Z,933.33
2019-03-10T13:33:15.761Z,933.26
2019-03-10T13:34:15.758Z,933.24
2019-03-10T13:35:15.788Z,933.25
2019-03-10T13:36:15.735Z,933.21
2019-03-10T13:37:15.723Z,933.12
2019-03-10T13:38:15.735Z,933.12
2019-03-10T13:39:15.704Z,933.18
2019-03-10T13:40:15.696Z,933.08
2019-03-10T13:41:15.695Z,933.16
2019-03-10T13:42:15.691Z,933.14
2019-03-10T13:43:15.660Z,933.04
2019-03-10T13:44:15.698Z,933.01
2019-03-10T13:45:15.632Z,932.98
2019-03-10T13:46:15.643Z,932.97
2019-03-10T13:47:15.623Z,932.95
2019-03-10T13:48:15.601Z,932.94
2019-03-10T13:49:15.585Z,932.93
2019-03-10T13:50:15.568Z,932.98
2019-03-10T13:51:15.566Z,932.94
2019-03-10T13:52:15.630Z,932.89
2019-03-10T13:53:15.539Z,932.90
2019-03-10T13:54:15.533Z,932.96
2019-03-10T13:55:15.517Z,932.90
2019-03-10T13:56:15.509Z,932.83
2019-03-10T13:57:15.554Z,932.95
2019-03-10T13:58:15.514Z,932.97
2019-03-10T13:59:15.483Z,932.98
2019-03-10T14:00:15.464Z,933.05
2019-03-10T14:01:15.451Z,933.09
2019-03-10T14:02:15.443Z,933.10
2019-03-10T14:03:15.454Z,933.15
2019-03-10T14:04:15.427Z,933.09
2019-03-10T14:05:15.406Z,933.09
2019-03-10T14:06:15.393Z,933.23
2019-03-10T14:07:15.390Z,933.17
2019-03-10T14:08:15.412Z,933.18
2019-03-10T14:09:15.349Z,933.17
2019-03-10T14:10:15.384Z,933.25
2019-03-10T14:11:15.332Z,933.20
2019-03-10T14:12:15.320Z,933.20
2019-03-10T14:13:15.313Z,933.14
2019-03-10T14:14:15.307Z,933.07
2019-03-10T14:15:15.290Z,933.15
2019-03-10T14:16:15.305Z,933.16
2019-03-10T14:17:15.269Z,933.19
2019-03-10T14:18:15.247Z,933.13
2019-03-10T14:19:15.275Z,933.14
2019-03-10T14:20:15.236Z,933.27
2019-03-10T14:21:15.217Z,933.25
2019-03-10T14:22:15.231Z,933.18
2019-03-10T14:23:15.200Z,933.11
2019-03-10T14:24:15.188Z,933.19
2019-03-10T14:25:15.187Z,933.14
2019-03-10T14:26:15.162Z,933.10
2019-03-10T14:27:15.150Z,933.03
2019-03-10T14:28:15.944Z,932.98
2019-03-10T14:29:15.127Z,933.11
2019-03-10T14:30:15.132Z,933.21
2019-03-10T14:31:15.111Z,933.17
2019-03-10T14:32:15.101Z,933.05
2019-03-10T14:33:15.092Z,933.12
2019-03-10T14:34:15.097Z,933.12
2019-03-10T14:35:15.107Z,933.07
2019-03-10T14:36:15.043Z,933.07
2019-03-10T14:37:15.043Z,933.04
2019-03-10T14:38:15.031Z,933.22
2019-03-10T14:39:15.017Z,933.23
2019-03-10T14:40:15.032Z,933.07
2019-03-10T14:41:15.020Z,933.05
2019-03-10T14:42:14.983Z,932.93
2019-03-10T14:43:14.969Z,932.89
2019-03-10T14:44:14.961Z,932.84
2019-03-10T14:45:14.959Z,932.82
2019-03-10T14:46:14.959Z,932.69
2019-03-10T14:47:14.952Z,932.75
2019-03-10T14:48:14.918Z,932.79
2019-03-10T14:49:22.629Z,932.84
2019-03-10T14:50:15.892Z,932.82
2019-03-10T14:51:14.884Z,932.74
2019-03-10T14:52:14.898Z,932.71
2019-03-10T14:53:14.863Z,932.66
2019-03-10T14:54:14.840Z,932.63
2019-03-10T14:55:14.852Z,932.59
2019-03-10T14:56:14.818Z,932.60
2019-03-10T14:57:14.838Z,932.63
2019-03-10T14:58:14.827Z,932.64
2019-03-10T14:59:14.783Z,932.56
2019-03-10T15:00:14.779Z,932.58
2019-03-10T15:01:14.772Z,932.50
2019-03-10T15:02:14.751Z,932.58
2019-03-10T15:03:14.767Z,932.48
2019-03-10T15:04:14.759Z,932.36
2019-03-10T15:05:14.717Z,932.30
2019-03-10T15:06:14.716Z,932.42
2019-03-10T15:07:14.701Z,932.32
2019-03-10T15:08:14.707Z,932.30
2019-03-10T15:09:14.742Z,932.35
2019-03-10T15:10:14.687Z,932.44
2019-03-10T15:11:14.654Z,932.41
2019-03-10T15:12:14.654Z,932.39
2019-03-10T15:13:14.626Z,932.37
2019-03-10T15:14:14.633Z,932.34
2019-03-10T15:15:22.458Z,932.30
2019-03-10T15:16:15.638Z,932.29
2019-03-10T15:17:14.584Z,932.26
2019-03-10T15:18:14.579Z,932.32
2019-03-10T15:19:14.582Z,932.30
2019-03-10T15:20:14.548Z,932.27
2019-03-10T15:21:14.539Z,932.21
2019-03-10T15:22:14.556Z,932.18
2019-03-10T15:23:14.523Z,932.13
2019-03-10T15:24:14.556Z,932.13
2019-03-10T15:25:14.498Z,932.06
2019-03-10T15:26:14.492Z,932.13
2019-03-10T15:27:22.988Z,932.08
2019-03-10T15:28:15.489Z,932.13
2019-03-10T15:29:14.446Z,932.05
2019-03-10T15:30:14.471Z,932.05
2019-03-10T15:31:14.443Z,932.10
2019-03-10T15:32:14.422Z,932.17
2019-03-10T15:33:14.409Z,932.20
2019-03-10T15:34:14.435Z,932.23
2019-03-10T15:35:14.383Z,932.19
2019-03-10T15:36:20.408Z,932.33
2019-03-10T15:37:14.362Z,932.31
2019-03-10T15:38:14.351Z,932.48
2019-03-10T15:39:14.366Z,932.72
2019-03-10T15:40:14.325Z,932.74
2019-03-10T15:41:14.340Z,933.09
2019-03-10T15:42:14.298Z,932.83
2019-03-10T15:43:14.291Z,932.74
2019-03-10T15:44:14.276Z,932.72
2019-03-10T15:45:14.291Z,932.79
2019-03-10T15:46:14.252Z,932.84
2019-03-10T15:47:14.306Z,932.80
2019-03-10T15:48:14.240Z,932.81
2019-03-10T15:49:14.224Z,932.60
2019-03-10T15:50:14.212Z,932.71
2019-03-10T15:51:14.239Z,932.79
2019-03-10T15:52:14.208Z,932.80
2019-03-10T15:53:14.177Z,932.78
2019-03-10T15:54:14.172Z,932.73
2019-03-10T15:55:14.161Z,932.64
2019-03-10T15:56:14.151Z,932.66
2019-03-10T15:57:14.169Z,932.65
2019-03-10T15:58:14.124Z,932.64
2019-03-10T15:59:14.111Z,932.62
2019-03-10T16:00:14.102Z,932.61
2019-03-10T16:01:14.094Z,932.73
2019-03-10T16:02:14.110Z,932.60
2019-03-10T16:03:14.095Z,932.68
2019-03-10T16:04:14.058Z,932.71
2019-03-10T16:05:14.046Z,932.73
2019-03-10T16:06:14.035Z,932.79
2019-03-10T16:07:14.024Z,932.89
2019-03-10T16:08:14.020Z,932.82
2019-03-10T16:09:14.002Z,932.84
2019-03-10T16:10:14.000Z,932.84
2019-03-10T16:11:13.975Z,932.82
2019-03-10T16:12:13.970Z,932.81
2019-03-10T16:13:13.975Z,932.79
2019-03-10T16:14:13.945Z,932.79
2019-03-10T16:15:13.932Z,932.86
2019-03-10T16:16:13.950Z,932.71
2019-03-10T16:17:13.917Z,932.79
2019-03-10T16:18:13.896Z,932.76
2019-03-10T16:19:13.903Z,932.79
2019-03-10T16:20:13.874Z,932.75
2019-03-10T16:21:13.865Z,932.77
2019-03-10T16:22:13.874Z,932.69
2019-03-10T16:23:13.837Z,932.81
2019-03-10T16:24:13.949Z,932.74
2019-03-10T16:25:13.816Z,932.81
2019-03-10T16:26:13.812Z,932.77
2019-03-10T16:27:13.794Z,932.59
2019-03-10T16:28:13.811Z,932.86
2019-03-10T16:29:13.769Z,932.81
2019-03-10T16:30:13.875Z,932.88
2019-03-10T16:31:13.757Z,932.91
2019-03-10T16:32:13.745Z,932.93
2019-03-10T16:33:13.735Z,933.08
2019-03-10T16:34:13.750Z,932.95
2019-03-10T16:35:13.736Z,932.97
2019-03-10T16:36:13.696Z,932.98
2019-03-10T16:37:13.689Z,933.00
2019-03-10T16:38:13.675Z,933.03
2019-03-10T16:39:13.656Z,933.03
2019-03-10T16:40:13.670Z,933.05
2019-03-10T16:41:13.656Z,933.00
2019-03-10T16:42:13.883Z,933.12
2019-03-10T16:43:13.620Z,933.03
2019-03-10T16:44:13.605Z,933.01
2019-03-10T16:45:13.593Z,932.99
2019-03-10T16:46:13.609Z,932.91
2019-03-10T16:47:13.595Z,932.93
2019-03-10T16:48:14.489Z,933.02
2019-03-10T16:49:13.553Z,933.07
2019-03-10T16:50:13.535Z,933.24
2019-03-10T16:51:13.557Z,933.21
2019-03-10T16:52:13.523Z,933.58
2019-03-10T16:53:13.522Z,934.04
2019-03-10T16:54:13.490Z,933.90
2019-03-10T16:55:13.476Z,933.85
2019-03-10T16:56:13.471Z,933.65
2019-03-10T16:57:13.478Z,933.62
2019-03-10T16:58:13.444Z,933.72
2019-03-10T16:59:13.459Z,933.71
2019-03-10T17:00:13.419Z,933.66
2019-03-10T17:01:13.419Z,933.67
2019-03-10T17:02:13.428Z,933.76
2019-03-10T17:03:13.393Z,933.66
2019-03-10T17:04:13.375Z,933.68
2019-03-10T17:05:15.531Z,933.68
2019-03-10T17:06:13.353Z,933.74
2019-03-10T17:07:13.348Z,934.12
2019-03-10T17:08:13.345Z,933.86
2019-03-10T17:09:13.325Z,933.89
2019-03-10T17:10:13.330Z,933.72
2019-03-10T17:11:13.325Z,933.84
2019-03-10T17:12:13.344Z,933.74
2019-03-10T17:13:13.301Z,933.71
2019-03-10T17:14:13.266Z,933.87
2019-03-10T17:15:13.253Z,933.88
2019-03-10T17:16:13.245Z,933.94
2019-03-10T17:17:13.262Z,933.94
2019-03-10T17:18:13.220Z,933.95
2019-03-10T17:19:13.237Z,933.86
2019-03-10T17:20:13.208Z,933.93
2019-03-10T17:21:13.190Z,933.84
2019-03-10T17:22:13.172Z,933.88
2019-03-10T17:23:13.187Z,933.80
2019-03-10T17:24:13.165Z,933.92
2019-03-10T17:25:13.160Z,933.85
2019-03-10T17:26:13.133Z,933.89
2019-03-10T17:27:13.121Z,933.86
2019-03-10T17:28:13.112Z,933.92
2019-03-10T17:29:13.153Z,933.90
2019-03-10T17:30:13.086Z,934.00
2019-03-10T17:31:13.083Z,933.97
2019-03-10T17:32:13.062Z,934.03
2019-03-10T17:33:13.055Z,934.09
2019-03-10T17:34:13.047Z,934.07
2019-03-10T17:35:13.072Z,934.12
2019-03-10T17:36:13.021Z,934.23
2019-03-10T17:37:13.005Z,934.14
2019-03-10T17:38:12.999Z,934.08
2019-03-10T17:39:12.984Z,934.17
2019-03-10T17:40:13.001Z,934.11
2019-03-10T17:41:12.991Z,934.09
2019-03-10T17:42:12.950Z,934.19
2019-03-10T17:43:12.945Z,934.29
2019-03-10T17:44:12.933Z,934.27
2019-03-10T17:45:12.919Z,934.34
2019-03-10T17:46:12.934Z,934.17
2019-03-10T17:47:12.918Z,934.18
2019-03-10T17:48:13.226Z,934.21
2019-03-10T17:49:12.870Z,934.19
2019-03-10T17:50:12.867Z,934.32
2019-03-10T17:51:12.867Z,934.29
2019-03-10T17:52:14.714Z,934.39
2019-03-10T17:53:12.851Z,934.30
2019-03-10T17:54:12.817Z,934.32
2019-03-10T17:55:12.813Z,934.31
2019-03-10T17:56:12.800Z,934.30
2019-03-10T17:57:12.798Z,934.40
2019-03-10T17:58:12.772Z,934.41
2019-03-10T17:59:12.781Z,934.36
2019-03-10T18:00:12.759Z,934.41
2019-03-10T18:01:12.748Z,934.37
2019-03-10T18:02:12.772Z,934.30
2019-03-10T18:03:12.722Z,934.39
2019-03-10T18:04:12.713Z,934.58
2019-03-10T18:05:12.824Z,934.61
2019-03-10T18:06:12.708Z,934.45
2019-03-10T18:07:12.681Z,934.31
2019-03-10T18:08:12.700Z,934.42
2019-03-10T18:09:12.655Z,934.54
2019-03-10T18:10:12.644Z,934.50
2019-03-10T18:11:12.680Z,934.74
2019-03-10T18:12:12.619Z,934.67
2019-03-10T18:13:12.607Z,934.77
2019-03-10T18:14:12.633Z,934.71
2019-03-10T18:15:12.596Z,934.75
2019-03-10T18:16:12.575Z,934.89
2019-03-10T18:17:12.587Z,934.86
2019-03-10T18:18:12.551Z,934.88
2019-03-10T18:19:12.542Z,934.99
2019-03-10T18:20:12.546Z,934.85
2019-03-10T18:21:12.520Z,934.92
2019-03-10T18:22:12.511Z,934.93
2019-03-10T18:23:12.517Z,934.86
2019-03-10T18:24:12.484Z,934.98
2019-03-10T18:25:12.476Z,934.97
2019-03-10T18:26:12.482Z,935.03
2019-03-10T18:27:12.447Z,935.05
2019-03-10T18:28:12.439Z,935.25
2019-03-10T18:29:12.449Z,935.13
2019-03-10T18:30:12.414Z,935.10
2019-03-10T18:31:12.431Z,935.06
2019-03-10T18:32:12.395Z,935.32
2019-03-10T18:33:12.386Z,935.17
2019-03-10T18:34:12.372Z,935.07
2019-03-10T18:35:12.359Z,935.29
2019-03-10T18:36:12.365Z,935.19
2019-03-10T18:37:12.384Z,935.58
2019-03-10T18:38:12.325Z,935.09
2019-03-10T18:39:12.316Z,935.22
2019-03-10T18:40:12.309Z,935.35
2019-03-10T18:41:12.290Z,935.05
2019-03-10T18:42:12.325Z,935.30
2019-03-10T18:43:12.269Z,935.34
2019-03-10T18:44:12.256Z,935.65
2019-03-10T18:45:12.252Z,935.35
2019-03-10T18:46:12.235Z,935.11
2019-03-10T18:47:12.251Z,935.43
2019-03-10T18:48:12.241Z,935.05
2019-03-10T18:49:12.218Z,935.59
2019-03-10T18:50:12.195Z,935.34
2019-03-10T18:51:12.188Z,935.56
2019-03-10T18:52:12.170Z,935.40
2019-03-10T18:53:12.182Z,935.45
2019-03-10T18:54:12.154Z,935.47
2019-03-10T18:55:12.161Z,935.51
2019-03-10T18:56:12.143Z,935.58
2019-03-10T18:57:12.117Z,935.45
2019-03-10T18:58:12.147Z,935.84
2019-03-10T18:59:12.088Z,935.73
2019-03-10T19:00:12.077Z,935.36
2019-03-10T19:01:12.107Z,935.54
2019-03-10T19:02:12.055Z,935.39
2019-03-10T19:03:12.045Z,935.57
2019-03-10T19:04:12.079Z,935.53
2019-03-10T19:05:12.027Z,935.68
2019-03-10T19:06:12.021Z,935.48
2019-03-10T19:07:12.035Z,935.55
2019-03-10T19:08:12.004Z,935.58
2019-03-10T19:09:11.977Z,935.38
2019-03-10T19:10:12.020Z,935.50
2019-03-10T19:11:11.966Z,935.49
2019-03-10T19:12:11.940Z,935.62
2019-03-10T19:13:11.936Z,935.44
2019-03-10T19:14:11.972Z,935.47
2019-03-10T19:15:11.993Z,935.34
2019-03-10T19:16:11.898Z,935.45
2019-03-10T19:17:11.920Z,935.48
2019-03-10T19:18:11.878Z,935.45
2019-03-10T19:19:11.868Z,935.52
2019-03-10T19:20:11.905Z,935.31
2019-03-10T19:21:11.847Z,935.22
2019-03-10T19:22:11.839Z,935.34
2019-03-10T19:23:11.825Z,935.29
2019-03-10T19:24:11.809Z,935.29
2019-03-10T19:25:11.815Z,935.34
2019-03-10T19:26:11.839Z,935.59
2019-03-10T19:27:11.777Z,935.39
2019-03-10T19:28:11.769Z,935.42
2019-03-10T19:29:11.761Z,935.50
2019-03-10T19:30:11.752Z,935.56
2019-03-10T19:31:11.764Z,935.33
2019-03-10T19:32:11.739Z,935.28
2019-03-10T19:33:11.714Z,935.39
2019-03-10T19:34:11.695Z,935.47
2019-03-10T19:35:11.696Z,935.27
2019-03-10T19:36:11.676Z,935.61
2019-03-10T19:37:11.694Z,935.56
2019-03-10T19:38:11.676Z,935.73
2019-03-10T19:39:11.649Z,935.46
2019-03-10T19:40:11.640Z,935.59
2019-03-10T19:41:11.631Z,935.29
2019-03-10T19:42:11.612Z,935.77
2019-03-10T19:43:11.613Z,935.51
2019-03-10T19:44:11.659Z,935.59
2019-03-10T19:45:11.589Z,935.63
2019-03-10T19:46:11.569Z,935.58
2019-03-10T19:47:11.570Z,935.58
2019-03-10T19:48:11.571Z,935.63
2019-03-10T19:49:11.531Z,935.64
2019-03-10T19:50:12.466Z,935.56
2019-03-10T19:51:11.522Z,935.83
2019-03-10T19:52:11.502Z,935.88
2019-03-10T19:53:11.522Z,935.85
2019-03-10T19:54:11.482Z,935.69
2019-03-10T19:55:11.469Z,935.62
2019-03-10T19:56:11.455Z,935.95
2019-03-10T19:57:11.480Z,935.81
2019-03-10T19:58:11.442Z,935.75
2019-03-10T19:59:11.443Z,935.79
2019-03-10T20:00:11.402Z,935.90
2019-03-10T20:01:11.399Z,935.90
2019-03-10T20:02:11.384Z,935.90
2019-03-10T20:03:11.371Z,935.99
2019-03-10T20:04:11.398Z,935.70
2019-03-10T20:05:11.359Z,935.73
2019-03-10T20:06:11.346Z,935.71
2019-03-10T20:07:11.329Z,935.86
2019-03-10T20:08:11.328Z,935.93
2019-03-10T20:09:11.339Z,935.59
2019-03-10T20:10:11.342Z,935.87
2019-03-10T20:11:11.299Z,935.86
2019-03-10T20:12:11.277Z,935.89
2019-03-10T20:13:11.267Z,936.01
2019-03-10T20:14:11.250Z,936.10
2019-03-10T20:15:11.255Z,935.96
2019-03-10T20:16:11.255Z,936.01
2019-03-10T20:17:11.214Z,936.04
2019-03-10T20:18:11.196Z,935.77
2019-03-10T20:19:11.195Z,935.95
2019-03-10T20:20:11.212Z,935.94
2019-03-10T20:21:11.175Z,935.96
2019-03-10T20:22:11.186Z,936.05
2019-03-10T20:23:11.142Z,936.14
2019-03-10T20:24:11.138Z,936.24
2019-03-10T20:25:11.123Z,935.97
2019-03-10T20:26:11.128Z,936.23
2019-03-10T20:27:11.107Z,936.32
2019-03-10T20:28:11.126Z,936.46
2019-03-10T20:29:11.079Z,935.94
2019-03-10T20:30:11.069Z,936.60
2019-03-10T20:31:11.087Z,936.84
2019-03-10T20:32:14.249Z,936.65
2019-03-10T20:33:11.054Z,936.46
2019-03-10T20:34:11.043Z,936.87
2019-03-10T20:35:11.021Z,936.72
2019-03-10T20:36:11.036Z,937.05
2019-03-10T20:37:11.087Z,937.13
2019-03-10T20:38:10.985Z,937.14
2019-03-10T20:39:10.974Z,937.11
2019-03-10T20:40:10.973Z,937.29
2019-03-10T20:41:10.946Z,937.32
2019-03-10T20:42:12.224Z,937.93
2019-03-10T20:43:10.928Z,937.63
2019-03-10T20:44:10.913Z,937.36
2019-03-10T20:45:10.907Z,937.97
2019-03-10T20:46:10.926Z,937.83
2019-03-10T20:47:12.526Z,938.22
2019-03-10T20:48:10.876Z,938.31
2019-03-10T20:49:10.862Z,938.19
2019-03-10T20:50:10.845Z,938.46
2019-03-10T20:51:10.837Z,938.95
2019-03-10T20:52:10.893Z,938.81
2019-03-10T20:53:10.823Z,939.29
2019-03-10T20:54:10.886Z,939.36
2019-03-10T20:55:10.789Z,939.54
2019-03-10T20:56:10.784Z,939.22
2019-03-10T20:57:10.774Z,939.45
2019-03-10T20:58:10.795Z,939.30
2019-03-10T20:59:10.747Z,939.45
2019-03-10T21:00:10.770Z,939.97
2019-03-10T21:01:10.735Z,939.42
2019-03-10T21:02:10.714Z,939.66
2019-03-10T21:03:10.739Z,939.71
2019-03-10T21:04:10.686Z,940.09
2019-03-10T21:05:10.689Z,939.85
2019-03-10T21:06:10.671Z,939.70
2019-03-10T21:07:10.685Z,939.78
2019-03-10T21:08:10.659Z,940.39
2019-03-10T21:09:10.675Z,940.08
2019-03-10T21:10:10.625Z,940.04
2019-03-10T21:11:12.478Z,940.28
2019-03-10T21:12:10.603Z,940.48
2019-03-10T21:13:10.590Z,940.22
2019-03-10T21:14:10.616Z,940.36
2019-03-10T21:15:10.600Z,940.42
2019-03-10T21:16:10.565Z,940.46
2019-03-10T21:17:10.549Z,940.63
2019-03-10T21:18:10.588Z,940.62
2019-03-10T21:19:10.529Z,940.41
2019-03-10T21:20:10.546Z,940.53
2019-03-10T21:21:10.533Z,940.47
2019-03-10T21:22:10.487Z,940.61
2019-03-10T21:23:10.496Z,940.98
2019-03-10T21:24:10.467Z,940.76
2019-03-10T21:25:10.451Z,940.77
2019-03-10T21:26:10.462Z,940.87
2019-03-10T21:27:10.436Z,940.86
2019-03-10T21:28:10.461Z,941.07
2019-03-10T21:29:10.447Z,941.28
2019-03-10T21:30:10.412Z,941.11
2019-03-10T21:31:10.410Z,941.10
2019-03-10T21:32:10.379Z,941.04
2019-03-10T21:33:10.363Z,941.11
2019-03-10T21:34:10.375Z,941.29
2019-03-10T21:35:17.723Z,941.35
2019-03-10T21:36:11.360Z,941.43
2019-03-10T21:37:10.328Z,941.32
2019-03-10T21:38:10.310Z,941.21
2019-03-10T21:39:10.297Z,941.36
2019-03-10T21:40:10.313Z,941.44
2019-03-10T21:41:14.198Z,941.36
2019-03-10T21:42:10.278Z,941.61
2019-03-10T21:43:10.257Z,941.51
2019-03-10T21:44:10.258Z,941.54
2019-03-10T21:45:10.240Z,941.70
2019-03-10T21:46:10.245Z,941.50
2019-03-10T21:47:10.243Z,941.68
2019-03-10T21:48:10.214Z,941.65
2019-03-10T21:49:10.188Z,941.65
2019-03-10T21:50:10.174Z,941.87
2019-03-10T21:51:10.170Z,941.83
2019-03-10T21:52:10.955Z,941.83
2019-03-10T21:53:10.166Z,941.97
2019-03-10T21:54:10.131Z,941.91
2019-03-10T21:55:10.119Z,941.99
2019-03-10T21:56:10.107Z,942.01
2019-03-10T21:57:10.108Z,942.21
2019-03-10T21:58:37.256Z,942.21
2019-03-10T21:59:10.121Z,942.17
2019-03-10T22:00:10.162Z,942.24
2019-03-10T22:01:10.105Z,942.25
2019-03-10T22:02:10.206Z,942.28
2019-03-10T22:03:10.071Z,942.33
2019-03-10T22:04:10.019Z,942.41
2019-03-10T22:05:10.036Z,942.36
2019-03-10T22:06:09.998Z,942.28
2019-03-10T22:07:10.017Z,942.47
2019-03-10T22:08:10.065Z,942.36
2019-03-10T22:09:09.966Z,942.50
2019-03-10T22:10:09.959Z,942.50
2019-03-10T22:11:09.943Z,942.43
2019-03-10T22:12:09.931Z,942.62
2019-03-10T22:13:09.967Z,942.63
2019-03-10T22:14:20.679Z,942.54
2019-03-10T22:15:09.969Z,942.64
2019-03-10T22:16:09.972Z,942.62
2019-03-10T22:17:09.939Z,942.75
2019-03-10T22:18:10.026Z,942.78
2019-03-10T22:19:09.875Z,942.73
2019-03-10T22:20:09.849Z,942.91
2019-03-10T22:21:09.880Z,942.83
2019-03-10T22:22:09.821Z,942.78
2019-03-10T22:23:09.816Z,942.91
2019-03-10T22:24:24.058Z,942.90
2019-03-10T22:25:13.034Z,942.94
2019-03-10T22:26:09.898Z,942.95
2019-03-10T22:27:09.882Z,942.95
2019-03-10T22:28:09.829Z,943.00
2019-03-10T22:29:09.909Z,942.87
2019-03-10T22:30:09.753Z,942.99
2019-03-10T22:31:09.730Z,943.01
2019-03-10T22:32:09.725Z,943.04
2019-03-10T22:33:09.717Z,943.00
2019-03-10T22:34:09.688Z,943.02
2019-03-10T22:35:09.705Z,943.02